createdAt,value
2022-09-10T00:01:10.793Z,15.92
2022-09-10T00:03:38.397Z,16.20
2022-09-10T00:06:09.214Z,16.38
2022-09-10T00:08:37.484Z,16.38
2022-09-10T00:11:07.517Z,16.37
2022-09-10T00:13:34.934Z,16.29
2022-09-10T00:16:04.932Z,16.37
2022-09-10T00:18:33.577Z,16.39
2022-09-10T00:21:04.575Z,16.39
2022-09-10T00:23:31.694Z,16.13
2022-09-10T00:25:58.786Z,16.17
2022-09-10T00:28:28.139Z,16.45
2022-09-10T00:30:55.855Z,16.47
2022-09-10T00:33:24.298Z,16.45
2022-09-10T00:35:51.727Z,16.37
2022-09-10T00:38:19.112Z,16.37
2022-09-10T00:40:47.251Z,16.39
2022-09-10T00:43:21.620Z,16.40
2022-09-10T00:45:53.329Z,16.20
2022-09-10T00:48:29.346Z,16.39
2022-09-10T00:51:05.981Z,16.39
2022-09-10T00:53:33.981Z,16.29
2022-09-10T00:56:05.307Z,16.39
2022-09-10T00:58:32.770Z,16.34
2022-09-10T01:01:02.965Z,16.38
2022-09-10T01:03:32.822Z,16.38
2022-09-10T01:06:00.829Z,16.39
2022-09-10T01:08:28.027Z,16.26
2022-09-10T01:11:20.892Z,16.42
2022-09-10T01:14:11.135Z,16.42
2022-09-10T01:16:50.675Z,16.44
2022-09-10T01:19:46.855Z,16.44
2022-09-10T01:22:40.545Z,16.29
2022-09-10T01:25:30.901Z,16.40
2022-09-10T01:27:59.890Z,16.39
2022-09-10T01:30:30.958Z,16.40
2022-09-10T01:33:25.539Z,16.38
2022-09-10T01:36:06.321Z,16.45
2022-09-10T01:38:38.662Z,16.50
2022-09-10T01:41:07.757Z,16.51
2022-09-10T01:43:42.313Z,16.51
2022-09-10T01:46:28.423Z,16.53
2022-09-10T01:49:27.144Z,16.50
2022-09-10T01:52:15.373Z,16.49
2022-09-10T01:54:45.969Z,16.48
2022-09-10T01:57:37.971Z,16.48
2022-09-10T02:00:12.782Z,16.49
2022-09-10T02:03:04.192Z,16.49
2022-09-10T02:05:35.450Z,16.43
2022-09-10T02:08:31.351Z,16.48
2022-09-10T02:11:06.498Z,16.36
2022-09-10T02:13:37.051Z,16.45
2022-09-10T02:16:48.148Z,16.48
2022-09-10T02:19:17.071Z,16.43
2022-09-10T02:21:44.454Z,16.25
2022-09-10T02:24:13.222Z,16.49
2022-09-10T02:26:44.216Z,16.51
2022-09-10T02:29:15.091Z,16.50
2022-09-10T02:31:44.126Z,16.57
2022-09-10T02:34:13.463Z,16.56
2022-09-10T02:36:40.810Z,16.51
2022-09-10T02:39:08.494Z,16.40
2022-09-10T02:41:35.622Z,16.38
2022-09-10T02:44:04.339Z,16.52
2022-09-10T02:46:31.586Z,16.51
2022-09-10T02:48:59.152Z,16.43
2022-09-10T02:51:29.569Z,16.48
2022-09-10T02:53:56.571Z,16.51
2022-09-10T02:56:24.014Z,16.55
2022-09-10T02:58:51.306Z,16.42
2022-09-10T03:01:21.394Z,16.55
2022-09-10T03:04:00.970Z,16.57
2022-09-10T03:06:29.800Z,16.57
2022-09-10T03:08:58.572Z,16.62
2022-09-10T03:11:27.698Z,16.42
2022-09-10T03:13:55.831Z,16.24
2022-09-10T03:16:24.536Z,16.33
2022-09-10T03:18:52.599Z,16.62
2022-09-10T03:21:22.183Z,16.52
2022-09-10T03:23:50.813Z,16.65
2022-09-10T03:26:28.424Z,16.61
2022-09-10T03:28:55.991Z,16.62
2022-09-10T03:31:27.507Z,16.53
2022-09-10T03:33:55.035Z,16.57
2022-09-10T03:36:22.997Z,16.59
2022-09-10T03:38:51.087Z,16.56
2022-09-10T03:41:18.503Z,16.50
2022-09-10T03:43:46.651Z,16.59
2022-09-10T03:46:14.971Z,16.56
2022-09-10T03:48:44.054Z,16.59
2022-09-10T03:51:11.593Z,16.59
2022-09-10T03:53:39.760Z,16.66
2022-09-10T03:56:09.294Z,16.51
2022-09-10T03:58:36.579Z,16.71
2022-09-10T04:01:05.222Z,16.72
2022-09-10T04:03:36.451Z,16.68
2022-09-10T04:06:03.691Z,16.55
2022-09-10T04:08:30.921Z,16.64
2022-09-10T04:11:02.880Z,16.65
2022-09-10T04:13:31.896Z,16.69
2022-09-10T04:16:02.817Z,16.69
2022-09-10T04:18:32.273Z,16.70
2022-09-10T04:20:59.374Z,16.72
2022-09-10T04:23:26.592Z,16.64
2022-09-10T04:25:54.659Z,16.73
2022-09-10T04:28:21.726Z,16.63
2022-09-10T04:30:51.413Z,16.70
2022-09-10T04:33:20.501Z,16.71
2022-09-10T04:35:47.742Z,16.66
2022-09-10T04:38:14.850Z,16.56
2022-09-10T04:40:44.573Z,16.13
2022-09-10T04:43:11.943Z,16.69
2022-09-10T04:45:41.460Z,16.71
2022-09-10T04:48:08.728Z,16.71
2022-09-10T04:50:36.508Z,16.61
2022-09-10T04:53:08.503Z,16.63
2022-09-10T04:55:40.405Z,16.75
2022-09-10T04:58:08.293Z,16.55
2022-09-10T05:00:35.465Z,16.68
2022-09-10T05:03:05.489Z,16.66
2022-09-10T05:05:33.824Z,16.69
2022-09-10T05:08:03.571Z,16.70
2022-09-10T05:10:30.736Z,16.69
2022-09-10T05:12:57.916Z,16.68
2022-09-10T05:15:26.370Z,16.64
2022-09-10T05:17:53.777Z,16.54
2022-09-10T05:20:20.933Z,16.43
2022-09-10T05:22:51.110Z,16.57
2022-09-10T05:25:18.596Z,16.55
2022-09-10T05:27:45.861Z,16.28
2022-09-10T05:30:19.095Z,16.24
2022-09-10T05:32:47.609Z,16.47
2022-09-10T05:35:16.117Z,16.49
2022-09-10T05:37:46.045Z,16.44
2022-09-10T05:40:15.257Z,16.44
2022-09-10T05:42:43.153Z,16.39
2022-09-10T05:45:11.066Z,16.28
2022-09-10T05:47:38.654Z,16.30
2022-09-10T05:50:07.637Z,16.25
2022-09-10T05:52:35.621Z,16.19
2022-09-10T05:55:06.571Z,16.13
2022-09-10T05:57:33.736Z,16.01
2022-09-10T06:00:01.871Z,16.08
2022-09-10T06:02:30.673Z,16.06
2022-09-10T06:05:00.861Z,15.84
2022-09-10T06:07:30.113Z,16.00
2022-09-10T06:09:57.910Z,16.02
2022-09-10T06:12:34.776Z,16.03
2022-09-10T06:15:04.068Z,16.01
2022-09-10T06:17:31.370Z,16.08
2022-09-10T06:19:58.611Z,16.07
2022-09-10T06:22:25.934Z,16.02
2022-09-10T06:24:54.183Z,16.02
2022-09-10T06:27:23.652Z,15.92
2022-09-10T06:29:51.934Z,16.10
2022-09-10T06:32:19.515Z,16.04
2022-09-10T06:34:47.579Z,15.95
2022-09-10T06:37:15.041Z,16.13
2022-09-10T06:39:42.527Z,16.12
2022-09-10T06:42:10.501Z,16.00
2022-09-10T06:45:10.170Z,16.17
2022-09-10T06:48:37.806Z,16.21
2022-09-10T06:50:56.259Z,16.15
2022-09-10T06:53:29.422Z,16.11
2022-09-10T06:55:59.770Z,16.30
2022-09-10T06:58:29.145Z,16.27
2022-09-10T07:00:56.400Z,16.28
2022-09-10T07:03:24.697Z,16.43
2022-09-10T07:05:55.980Z,16.48
2022-09-10T07:08:27.516Z,16.53
2022-09-10T07:11:00.431Z,16.57
2022-09-10T07:13:27.680Z,16.55
2022-09-10T07:15:55.643Z,16.56
2022-09-10T07:18:23.663Z,16.62
2022-09-10T07:20:50.891Z,16.64
2022-09-10T07:23:20.570Z,16.60
2022-09-10T07:25:50.578Z,16.71
2022-09-10T07:28:39.183Z,16.70
2022-09-10T07:31:12.114Z,16.75
2022-09-10T07:33:39.574Z,16.34
2022-09-10T07:36:06.949Z,16.75
2022-09-10T07:38:34.459Z,16.73
2022-09-10T07:41:02.514Z,16.70
2022-09-10T07:43:29.965Z,16.75
2022-09-10T07:45:59.081Z,16.62
2022-09-10T07:48:29.459Z,16.60
2022-09-10T07:51:08.303Z,16.62
2022-09-10T07:53:36.251Z,16.84
2022-09-10T07:56:06.784Z,16.87
2022-09-10T07:58:38.455Z,16.86
2022-09-10T08:01:12.683Z,16.86
2022-09-10T08:03:41.241Z,16.73
2022-09-10T08:06:10.338Z,16.87
2022-09-10T08:08:40.360Z,16.89
2022-09-10T08:11:13.544Z,16.91
2022-09-10T08:13:47.616Z,16.92
2022-09-10T08:16:27.098Z,16.92
2022-09-10T08:18:57.543Z,16.80
2022-09-10T08:21:26.057Z,16.90
2022-09-10T08:23:55.145Z,16.96
2022-09-10T08:26:25.585Z,16.98
2022-09-10T08:28:58.190Z,16.98
2022-09-10T08:31:27.034Z,16.89
2022-09-10T08:33:59.617Z,16.96
2022-09-10T08:36:26.745Z,17.09
2022-09-10T08:38:59.819Z,17.12
2022-09-10T08:41:39.461Z,17.13
2022-09-10T08:44:38.733Z,17.16
2022-09-10T08:47:21.501Z,17.16
2022-09-10T08:50:25.175Z,17.12
2022-09-10T08:53:06.012Z,16.91
2022-09-10T08:55:38.170Z,17.15
2022-09-10T08:58:25.473Z,17.08
2022-09-10T09:00:57.914Z,17.11
2022-09-10T09:03:40.774Z,17.11
2022-09-10T09:06:38.285Z,17.09
2022-09-10T09:09:06.335Z,17.08
2022-09-10T09:12:07.532Z,17.03
2022-09-10T09:15:19.870Z,16.99
2022-09-10T09:18:02.722Z,16.98
2022-09-10T09:20:52.152Z,16.97
2022-09-10T09:23:30.520Z,16.97
2022-09-10T09:26:14.007Z,16.96
2022-09-10T09:28:53.018Z,16.96
2022-09-10T09:31:29.821Z,16.97
2022-09-10T09:34:13.495Z,16.99
2022-09-10T09:36:46.373Z,16.98
2022-09-10T09:39:25.328Z,16.99
2022-09-10T09:42:11.343Z,17.00
2022-09-10T09:44:53.856Z,16.97
2022-09-10T09:47:23.984Z,17.01
2022-09-10T09:49:52.416Z,16.89
2022-09-10T09:52:22.714Z,16.95
2022-09-10T09:57:43.253Z,16.96
2022-09-10T10:00:37.330Z,16.97
2022-09-10T10:03:15.337Z,16.94
2022-09-10T10:05:43.254Z,16.86
2022-09-10T10:08:31.345Z,16.98
2022-09-10T10:10:59.377Z,16.94
2022-09-10T10:13:40.048Z,16.97
2022-09-10T10:16:21.745Z,16.95
2022-09-10T10:18:49.612Z,16.87
2022-09-10T10:21:37.070Z,16.94
2022-09-10T10:24:04.491Z,16.88
2022-09-10T10:26:33.801Z,16.88
2022-09-10T10:29:19.812Z,16.82
2022-09-10T10:31:49.852Z,16.79
2022-09-10T10:34:32.722Z,16.78
2022-09-10T10:37:14.658Z,16.80
2022-09-10T10:40:08.651Z,16.79
2022-09-10T10:43:00.022Z,16.74
2022-09-10T10:45:52.900Z,16.66
2022-09-10T10:48:19.965Z,16.75
2022-09-10T10:51:07.371Z,16.74
2022-09-10T10:54:09.857Z,16.73
2022-09-10T10:57:09.857Z,16.70
2022-09-10T10:59:42.731Z,16.69
2022-09-10T11:02:16.064Z,16.70
2022-09-10T11:04:51.779Z,16.69
2022-09-10T11:07:42.776Z,16.61
2022-09-10T11:10:27.831Z,16.69
2022-09-10T11:13:03.576Z,16.73
2022-09-10T11:15:38.145Z,16.66
2022-09-10T11:18:20.419Z,16.69
2022-09-10T11:21:02.708Z,16.68
2022-09-10T11:23:48.297Z,16.68
2022-09-10T11:26:27.068Z,16.62
2022-09-10T11:29:13.541Z,16.71
2022-09-10T11:31:47.667Z,16.69
2022-09-10T11:34:48.024Z,16.69
2022-09-10T11:37:45.291Z,16.68
2022-09-10T11:41:09.339Z,16.65
2022-09-10T11:43:45.584Z,16.63
2022-09-10T11:46:35.783Z,16.68
2022-09-10T11:49:16.459Z,16.66
2022-09-10T11:51:45.574Z,16.62
2022-09-10T11:54:21.331Z,16.44
2022-09-10T11:56:54.561Z,16.72
2022-09-10T11:59:42.604Z,16.70
2022-09-10T12:02:21.844Z,16.73
2022-09-10T12:05:40.891Z,16.66
2022-09-10T12:08:35.894Z,16.75
2022-09-10T12:11:36.996Z,16.78
2022-09-10T12:14:08.940Z,16.81
2022-09-10T12:16:51.900Z,16.72
2022-09-10T12:19:40.301Z,16.83
2022-09-10T12:22:26.472Z,16.86
2022-09-10T12:25:02.466Z,16.87
2022-09-10T12:27:49.336Z,16.90
2022-09-10T12:30:27.739Z,16.94
2022-09-10T12:32:59.465Z,16.96
2022-09-10T12:35:32.945Z,16.98
2022-09-10T12:38:37.211Z,16.98
2022-09-10T12:41:09.262Z,16.72
2022-09-10T12:43:39.730Z,16.99
2022-09-10T12:46:09.835Z,17.01
2022-09-10T12:48:41.807Z,17.05
2022-09-10T12:51:40.752Z,17.04
2022-09-10T12:54:29.489Z,17.01
2022-09-10T12:57:17.461Z,17.01
2022-09-10T13:00:11.872Z,17.01
2022-09-10T13:02:54.351Z,17.00
2022-09-10T13:05:50.805Z,17.00
2022-09-10T13:08:20.817Z,17.01
2022-09-10T13:11:00.093Z,17.09
2022-09-10T13:13:51.940Z,17.10
2022-09-10T13:16:38.465Z,16.90
2022-09-10T13:19:14.776Z,17.13
2022-09-10T13:21:45.029Z,17.13
2022-09-10T13:24:34.704Z,17.12
2022-09-10T13:27:17.006Z,17.13
2022-09-10T13:29:47.611Z,17.15
2022-09-10T13:32:20.668Z,17.17
2022-09-10T13:35:08.300Z,17.15
2022-09-10T13:37:55.656Z,17.09
2022-09-10T13:40:51.034Z,17.05
2022-09-10T13:43:27.180Z,17.03
2022-09-10T13:46:00.718Z,17.01
2022-09-10T13:48:31.946Z,17.02
2022-09-10T13:51:08.510Z,17.05
2022-09-10T13:53:40.725Z,16.63
2022-09-10T13:56:23.095Z,17.10
2022-09-10T13:58:53.778Z,17.10
2022-09-10T14:01:21.136Z,17.15
2022-09-10T14:03:48.676Z,17.11
2022-09-10T14:06:24.385Z,17.20
2022-09-10T14:09:11.967Z,17.02
2022-09-10T14:11:42.783Z,17.19
2022-09-10T14:14:21.347Z,17.19
2022-09-10T14:16:56.297Z,17.19
2022-09-10T14:19:34.737Z,17.18
2022-09-10T14:22:07.154Z,17.05
2022-09-10T14:24:39.827Z,17.19
2022-09-10T14:27:06.934Z,17.18
2022-09-10T14:29:34.384Z,17.19
2022-09-10T14:32:28.613Z,17.14
2022-09-10T14:34:56.127Z,17.26
2022-09-10T14:37:42.114Z,17.28
2022-09-10T14:40:21.139Z,17.32
2022-09-10T14:42:50.315Z,17.14
2022-09-10T14:45:50.146Z,17.34
2022-09-10T14:48:37.218Z,17.01
2022-09-10T14:51:15.987Z,17.26
2022-09-10T14:53:45.173Z,17.36
2022-09-10T14:56:22.594Z,17.37
2022-09-10T14:58:59.302Z,17.41
2022-09-10T15:01:26.943Z,17.43
2022-09-10T15:03:54.391Z,17.45
2022-09-10T15:06:26.165Z,17.47
2022-09-10T15:08:56.401Z,17.49
2022-09-10T15:11:28.205Z,17.48
2022-09-10T15:13:59.655Z,17.48
2022-09-10T15:16:27.789Z,17.49
2022-09-10T15:18:54.863Z,17.44
2022-09-10T15:21:22.774Z,17.43
2022-09-10T15:23:49.832Z,17.44
2022-09-10T15:26:16.985Z,17.41
2022-09-10T15:28:44.170Z,17.26
2022-09-10T15:31:11.585Z,17.25
2022-09-10T15:33:38.967Z,17.41
2022-09-10T15:36:06.614Z,17.42
2022-09-10T15:38:33.894Z,17.39
2022-09-10T15:41:13.150Z,17.35
2022-09-10T15:43:45.538Z,17.34
2022-09-10T15:46:16.147Z,17.33
2022-09-10T15:48:45.299Z,17.31
2022-09-10T15:51:18.224Z,17.26
2022-09-10T15:53:46.717Z,17.32
2022-09-10T15:56:15.157Z,17.30
2022-09-10T15:58:47.822Z,17.25
2022-09-10T16:01:16.577Z,17.22
2022-09-10T16:03:47.010Z,17.27
2022-09-10T16:06:14.692Z,17.23
2022-09-10T16:08:42.376Z,17.23
2022-09-10T16:11:12.050Z,17.16
2022-09-10T16:13:39.946Z,17.18
2022-09-10T16:16:10.230Z,17.18
2022-09-10T16:18:37.351Z,17.13
2022-09-10T16:21:18.653Z,17.13
2022-09-10T16:23:47.643Z,17.12
2022-09-10T16:26:18.382Z,17.12
2022-09-10T16:28:56.574Z,17.11
2022-09-10T16:31:31.799Z,17.10
2022-09-10T16:34:03.583Z,17.11
2022-09-10T16:36:33.291Z,16.95
2022-09-10T16:39:05.339Z,17.09
2022-09-10T16:41:33.339Z,17.08
2022-09-10T16:44:01.031Z,17.07
2022-09-10T16:46:29.120Z,17.08
2022-09-10T16:48:58.812Z,17.07
2022-09-10T16:51:29.102Z,17.06
2022-09-10T16:53:57.281Z,17.01
2022-09-10T16:56:26.022Z,17.01
2022-09-10T16:58:53.420Z,17.00
2022-09-10T17:01:21.763Z,16.97
2022-09-10T17:03:50.206Z,16.91
2022-09-10T17:06:20.127Z,16.86
2022-09-10T17:08:48.096Z,16.79
2022-09-10T17:11:17.711Z,16.76
2022-09-10T17:13:46.396Z,16.50
2022-09-10T17:16:29.780Z,16.61
2022-09-10T17:19:07.305Z,16.39
2022-09-10T17:21:36.292Z,16.47
2022-09-10T17:24:05.338Z,16.48
2022-09-10T17:26:33.513Z,16.51
2022-09-10T17:29:05.107Z,16.49
2022-09-10T17:31:33.650Z,16.45
2022-09-10T17:34:01.375Z,16.36
2022-09-10T17:36:28.692Z,16.40
2022-09-10T17:38:56.742Z,16.46
2022-09-10T17:41:24.958Z,16.48
2022-09-10T17:43:52.151Z,15.95
2022-09-10T17:46:21.768Z,16.47
2022-09-10T17:48:50.101Z,16.32
2022-09-10T17:51:20.727Z,16.37
2022-09-10T17:53:48.010Z,16.35
2022-09-10T17:56:19.279Z,16.26
2022-09-10T17:58:50.010Z,16.27
2022-09-10T18:01:27.928Z,16.25
2022-09-10T18:03:55.927Z,16.18
2022-09-10T18:06:25.537Z,16.19
2022-09-10T18:08:53.376Z,15.97
2022-09-10T18:11:27.356Z,16.18
2022-09-10T18:13:56.106Z,16.00
2022-09-10T18:16:27.125Z,16.16
2022-09-10T18:18:59.786Z,16.15
2022-09-10T18:21:27.346Z,16.15
2022-09-10T18:24:05.911Z,16.15
2022-09-10T18:26:36.365Z,16.14
2022-09-10T18:29:10.548Z,16.21
2022-09-10T18:31:40.189Z,16.19
2022-09-10T18:34:11.056Z,16.09
2022-09-10T18:36:38.261Z,16.15
2022-09-10T18:39:07.192Z,16.17
2022-09-10T18:41:38.389Z,16.15
2022-09-10T18:44:10.634Z,16.14
2022-09-10T18:46:38.225Z,16.14
2022-09-10T18:49:05.853Z,16.13
2022-09-10T18:51:33.217Z,16.09
2022-09-10T18:54:01.612Z,16.06
2022-09-10T18:56:31.832Z,16.06
2022-09-10T18:59:09.387Z,16.03
2022-09-10T19:01:38.939Z,15.97
2022-09-10T19:04:07.626Z,15.98
2022-09-10T19:06:38.525Z,15.92
2022-09-10T19:09:08.465Z,15.90
2022-09-10T19:11:38.697Z,15.88
2022-09-10T19:14:09.113Z,15.88
2022-09-10T19:16:36.792Z,15.48
2022-09-10T19:19:06.860Z,15.90
2022-09-10T19:21:36.322Z,15.86
2022-09-10T19:24:04.593Z,15.30
2022-09-10T19:26:34.721Z,15.95
2022-09-10T19:29:03.019Z,15.75
2022-09-10T19:31:33.283Z,15.71
2022-09-10T19:34:03.818Z,16.01
2022-09-10T19:36:33.858Z,15.43
2022-09-10T19:39:05.705Z,16.00
2022-09-10T19:41:34.331Z,15.97
2022-09-10T19:44:02.709Z,15.46
2022-09-10T19:46:30.775Z,15.46
2022-09-10T19:48:59.981Z,15.73
2022-09-10T19:51:30.069Z,15.83
2022-09-10T19:53:58.368Z,15.12
2022-09-10T19:56:29.627Z,15.50
2022-09-10T19:58:56.945Z,15.34
2022-09-10T20:01:33.110Z,15.33
2022-09-10T20:04:01.966Z,15.36
2022-09-10T20:06:30.138Z,15.08
2022-09-10T20:08:57.591Z,15.78
2022-09-10T20:11:28.556Z,15.14
2022-09-10T20:14:15.933Z,15.57
2022-09-10T20:16:45.461Z,15.67
2022-09-10T20:19:18.525Z,15.48
2022-09-10T20:21:46.707Z,14.99
2022-09-10T20:24:14.632Z,15.71
2022-09-10T20:26:43.944Z,15.75
2022-09-10T20:29:13.678Z,15.82
2022-09-10T20:31:42.378Z,15.83
2022-09-10T20:34:19.760Z,15.82
2022-09-10T20:36:48.239Z,15.82
2022-09-10T20:39:17.437Z,15.82
2022-09-10T20:41:44.886Z,15.59
2022-09-10T20:44:14.728Z,15.83
2022-09-10T20:46:42.821Z,15.78
2022-09-10T20:49:11.728Z,15.84
2022-09-10T20:51:40.498Z,15.75
2022-09-10T20:54:15.943Z,15.81
2022-09-10T20:56:43.936Z,15.54
2022-09-10T20:59:16.287Z,15.79
2022-09-10T21:01:46.147Z,15.73
2022-09-10T21:04:14.077Z,15.87
2022-09-10T21:06:41.421Z,15.63
2022-09-10T21:09:09.197Z,15.90
2022-09-10T21:11:36.702Z,15.72
2022-09-10T21:14:06.161Z,15.87
2022-09-10T21:16:39.146Z,15.94
2022-09-10T21:19:09.866Z,15.91
2022-09-10T21:21:39.207Z,15.91
2022-09-10T21:24:10.784Z,15.85
2022-09-10T21:26:40.163Z,15.89
2022-09-10T21:29:11.670Z,15.71
2022-09-10T21:31:39.462Z,15.97
2022-09-10T21:34:07.015Z,15.74
2022-09-10T21:36:37.723Z,15.97
2022-09-10T21:39:07.452Z,15.78
2022-09-10T21:41:35.714Z,15.95
2022-09-10T21:44:05.643Z,15.95
2022-09-10T21:46:33.623Z,15.95
2022-09-10T21:49:00.894Z,15.69
2022-09-10T21:51:28.801Z,15.89
2022-09-10T21:53:57.284Z,15.87
2022-09-10T21:56:26.511Z,15.93
2022-09-10T21:58:56.004Z,15.91
2022-09-10T22:01:25.960Z,15.89
2022-09-10T22:03:55.466Z,15.76
2022-09-10T22:06:27.651Z,15.91
2022-09-10T22:09:00.574Z,15.89
2022-09-10T22:11:37.446Z,15.90
2022-09-10T22:14:07.813Z,15.87
2022-09-10T22:16:35.683Z,15.88
2022-09-10T22:19:07.089Z,15.80
2022-09-10T22:21:36.276Z,15.87
2022-09-10T22:24:03.563Z,15.82
2022-09-10T22:26:30.563Z,15.73
2022-09-10T22:29:03.584Z,15.87
2022-09-10T22:31:33.364Z,15.90
2022-09-10T22:34:06.206Z,15.85
2022-09-10T22:36:35.977Z,15.88
2022-09-10T22:39:04.957Z,15.86
2022-09-10T22:41:34.255Z,15.86
2022-09-10T22:44:01.973Z,15.85
2022-09-10T22:46:29.959Z,15.85
2022-09-10T22:48:57.564Z,15.82
2022-09-10T22:51:28.096Z,15.84
2022-09-10T22:53:56.793Z,15.84
2022-09-10T22:56:26.344Z,15.73
2022-09-10T22:58:54.843Z,15.80
2022-09-10T23:01:31.297Z,15.72
2022-09-10T23:04:00.521Z,15.85
2022-09-10T23:06:30.724Z,15.82
2022-09-10T23:09:04.509Z,15.72
2022-09-10T23:11:32.856Z,15.83
2022-09-10T23:14:02.683Z,15.83
2022-09-10T23:16:38.346Z,15.52
2022-09-10T23:19:09.762Z,15.75
2022-09-10T23:21:39.694Z,15.77
2022-09-10T23:24:10.225Z,15.76
2022-09-10T23:26:37.397Z,15.76
2022-09-10T23:29:05.823Z,15.77
2022-09-10T23:31:35.867Z,15.47
2022-09-10T23:34:10.043Z,15.79
2022-09-10T23:36:39.852Z,15.51
2022-09-10T23:39:11.404Z,15.78
2022-09-10T23:41:39.660Z,15.58
2022-09-10T23:44:07.207Z,15.79
2022-09-10T23:46:35.656Z,15.79
2022-09-10T23:49:03.955Z,15.78
2022-09-10T23:51:32.215Z,15.78
2022-09-10T23:53:59.706Z,15.72
2022-09-10T23:56:28.580Z,15.77
2022-09-10T23:58:59.526Z,15.79
